M I D A S
Marine Information and Data Acquisition System
Tripno 862 of the Zeeleeuw from 2005-03-14 08:39:53 to 2005-03-14 13:46:52
Back to CruiseResearch ActivitiesStationsMapUnderway DataData graphs

EquipmentUnitsComment
TimeDGPSUTC
LatitudeDGPSDM.mWGS84
LongitudeDGPSDM.mWGS84
HeadingGyrodeg 
SOGDGPSknotsSpeed over ground
COGDGPSdegCourse over ground
DepthEcho soundermeters200 kHz
Missing or incorrect values are displayed as -999
Navigation data collected by the RV Zeeleeuw from 2005-03-14 08:40:48 to 2005-03-14 13:56:38
Time Latitude Longitude Heading SOG COG Depth
2005-03-14 08:41:54 51°13.639 2°55.976 108 3.2 288 5.2
2005-03-14 08:42:54 51°13.653 2°55.94 127.5 3.4 304 -999
2005-03-14 08:43:54 51°13.694 2°55.845 124.6 4.8 304 -999
2005-03-14 08:44:53 51°13.725 2°55.74 105.2 3.6 290 -999
2005-03-14 08:45:54 51°13.73 2°55.727 57.4 1.3 247 -999
2005-03-14 08:46:53 51°13.748 2°55.711 357 3.5 349 8.2
2005-03-14 08:47:54 51°13.834 2°55.636 336.8 6.9 332 8
2005-03-14 08:48:54 51°13.954 2°55.545 340.1 8.3 335 -999
2005-03-14 08:49:54 51°14.089 2°55.443 339.6 9 335 8
2005-03-14 08:50:54 51°14.233 2°55.302 327 10.7 321 -999
2005-03-14 08:51:53 51°14.358 2°55.082 316.4 11.5 312 8.3
2005-03-14 08:52:53 51°14.514 2°54.876 336.2 12.6 328 8.4
2005-03-14 08:53:53 51°14.677 2°54.767 7 7.7 353 8.1
2005-03-14 08:54:53 51°14.757 2°54.734 1.1 4.1 338 8
2005-03-14 08:55:53 51°14.801 2°54.685 348.9 2.9 318 8.2
2005-03-14 08:56:53 51°14.83 2°54.637 345.3 2.3 312 8.1
2005-03-14 08:57:53 51°14.852 2°54.592 341.5 2.1 307 8
2005-03-14 08:58:53 51°14.939 2°54.522 348.2 8.8 336 -999
2005-03-14 08:59:53 51°15.108 2°54.404 343.4 11.8 332 6.9
2005-03-14 09:00:53 51°15.289 2°54.254 345.5 12.6 335 7.3
2005-03-14 09:01:53 51°15.479 2°54.099 346 13 336 8
2005-03-14 09:02:54 51°15.679 2°53.95 341.1 13.4 330 8.7
2005-03-14 09:03:53 51°15.876 2°53.786 343 13.4 331 9.4
2005-03-14 09:04:53 51°16.068 2°53.602 339.8 13.5 329 9.7
2005-03-14 09:05:53 51°16.258 2°53.421 340 13.3 328 10
2005-03-14 09:06:53 51°16.448 2°53.24 340.7 13.3 330 10.3
2005-03-14 09:07:53 51°16.637 2°53.057 340.8 13.2 329 9.9
2005-03-14 09:08:53 51°16.828 2°52.892 339 12.9 330 7.5
2005-03-14 09:09:54 51°17.014 2°52.742 349.5 12.6 341 8.1
2005-03-14 09:10:54 51°17.216 2°52.643 352.4 12.5 344 7.9
2005-03-14 09:11:53 51°17.42 2°52.582 355.6 12.7 346 8.3
2005-03-14 09:12:53 51°17.628 2°52.512 356.1 12.8 347 8.6
2005-03-14 09:13:54 51°17.836 2°52.439 356.8 12.7 348 8.8
2005-03-14 09:14:53 51°18.042 2°52.41 11.3 12.4 3 8.9
2005-03-14 09:15:54 51°18.249 2°52.465 21.9 12.4 14 9.2
2005-03-14 09:16:53 51°18.427 2°52.611 42.5 12.2 38 9.6
2005-03-14 09:17:53 51°18.582 2°52.816 46.4 12.2 41 9.8
2005-03-14 09:18:53 51°18.728 2°53.046 51.8 12.2 44 9.9
2005-03-14 09:19:54 51°18.824 2°53.328 67.5 12 65 10.1
2005-03-14 09:20:54 51°18.911 2°53.613 67 12.1 65 10.2
2005-03-14 09:21:53 51°19.003 2°53.889 64.3 11.9 62 10.3
2005-03-14 09:22:54 51°19.099 2°54.168 63.9 11.9 62 10.3
2005-03-14 09:23:53 51°19.197 2°54.443 64.6 12 59 10.2
2005-03-14 09:24:53 51°19.298 2°54.721 64.3 12.1 60 10.3
2005-03-14 09:25:54 51°19.402 2°55.003 63.8 12.2 60 10.3
2005-03-14 09:26:53 51°19.501 2°55.276 63.8 11.9 61 10.2
2005-03-14 09:27:53 51°19.6 2°55.547 63.5 11.8 60 10.2
2005-03-14 09:28:54 51°19.7 2°55.817 63.2 11.7 59 10.1
2005-03-14 09:29:53 51°19.797 2°56.082 63.4 11.6 59 10.1
2005-03-14 09:30:53 51°19.94 2°56.282 41.7 11.7 33 10.3
2005-03-14 09:31:53 51°20.102 2°56.45 41.4 11.7 34 10.4
2005-03-14 09:32:53 51°20.264 2°56.626 41.8 11.7 34 10.4
2005-03-14 09:33:53 51°20.42 2°56.806 45.4 11.6 38 10.6
2005-03-14 09:34:54 51°20.575 2°56.995 45.2 11.6 38 10.6
2005-03-14 09:35:53 51°20.728 2°57.178 44.8 11.6 37 10.8
2005-03-14 09:36:54 51°20.885 2°57.364 45.3 11.7 36 10.9
2005-03-14 09:37:53 51°21.034 2°57.554 47.5 11.6 40 11.1
2005-03-14 09:38:53 51°21.185 2°57.752 47.1 11.7 40 11.3
2005-03-14 09:39:53 51°21.334 2°57.953 47.4 11.8 39 11.3
2005-03-14 09:40:53 51°21.483 2°58.161 49.2 12 45 11.5
2005-03-14 09:41:54 51°21.626 2°58.388 49.3 12 45 11.4
2005-03-14 09:42:53 51°21.771 2°58.608 49.1 12 44 11.5
2005-03-14 09:43:53 51°21.914 2°58.835 49.1 12 44 11.6
2005-03-14 09:44:53 51°22.057 2°59.058 49.4 12 45 11.6
2005-03-14 09:45:53 51°22.199 2°59.28 49.3 11.9 45 11.8
2005-03-14 09:46:54 51°22.34 2°59.505 49.6 11.8 44 11.8
2005-03-14 09:47:54 51°22.481 2°59.724 49.3 11.8 44 12.1
2005-03-14 09:48:53 51°22.62 2°59.942 49.4 11.8 46 12.1
2005-03-14 09:49:53 51°22.761 3°0.166 49.3 12 46 12.2
2005-03-14 09:50:53 51°22.903 3°0.389 49 12 44 12.7
2005-03-14 09:51:53 51°23.046 3°0.613 48.9 11.9 44 12.9
2005-03-14 09:52:53 51°23.191 3°0.833 48.9 12 43 13.3
2005-03-14 09:53:53 51°23.335 3°1.053 49.5 12 44 13.8
2005-03-14 09:54:53 51°23.48 3°1.268 49.4 11.7 43 14.1
2005-03-14 09:55:53 51°23.623 3°1.481 48.5 11.8 42 14.4
2005-03-14 09:56:53 51°23.767 3°1.688 49.1 11.7 43 14.8
2005-03-14 09:57:54 51°23.914 3°1.898 49.3 11.7 41 15
2005-03-14 09:58:53 51°24.059 3°2.101 49.8 11.7 41 15.4
2005-03-14 09:59:54 51°24.207 3°2.32 49.4 12.1 43 15.4
2005-03-14 10:00:53 51°24.352 3°2.535 49.6 12.1 43 15.9
2005-03-14 10:01:54 51°24.506 3°2.758 48.9 12.3 42 18
2005-03-14 10:02:54 51°24.654 3°2.982 49.9 12.3 44 17.9
2005-03-14 10:03:54 51°24.799 3°3.211 50 12.2 46 15.2
2005-03-14 10:04:53 51°24.929 3°3.449 52.7 12 48 13
2005-03-14 10:05:54 51°25.056 3°3.699 54.3 12 52 13.3
2005-03-14 10:06:54 51°25.18 3°3.955 54.5 12.1 52 12.4
2005-03-14 10:07:53 51°25.298 3°4.203 54.1 11.9 52 11.3
2005-03-14 10:08:53 51°25.418 3°4.454 54.4 11.8 53 10.9
2005-03-14 10:09:53 51°25.536 3°4.706 54.6 11.8 54 10.4
2005-03-14 10:10:53 51°25.661 3°4.946 48.4 11.7 47 9.9
2005-03-14 10:11:54 51°25.796 3°5.177 48.9 11.7 48 9.8
2005-03-14 10:12:53 51°25.927 3°5.403 49 11.6 46 9.6
2005-03-14 10:13:54 51°26.062 3°5.633 48.4 11.7 47 9.9
2005-03-14 10:14:53 51°26.192 3°5.86 49.4 11.8 47 9.4
2005-03-14 10:15:54 51°26.328 3°6.089 48.6 11.7 47 10
2005-03-14 10:16:53 51°26.46 3°6.314 49.1 11.7 47 10
2005-03-14 10:17:53 51°26.591 3°6.544 49 11.8 48 10.3
2005-03-14 10:18:53 51°26.724 3°6.776 49.4 11.8 47 10.4
2005-03-14 10:19:53 51°26.859 3°7.006 49.7 11.8 47 10.7
2005-03-14 10:20:53 51°26.993 3°7.237 48.6 11.8 45 10.7
2005-03-14 10:21:54 51°27.13 3°7.475 49.6 12 47 10.5
2005-03-14 10:22:54 51°27.265 3°7.703 49.1 11.8 47 10.2
2005-03-14 10:23:53 51°27.4 3°7.932 49.8 12 48 10.5
2005-03-14 10:24:54 51°27.538 3°8.167 48.7 12 46 11.3
2005-03-14 10:25:53 51°27.673 3°8.4 49 12 46 12.1
2005-03-14 10:26:53 51°27.811 3°8.635 49.5 12.1 46 12.5
2005-03-14 10:27:53 51°27.948 3°8.872 49.7 12.1 48 12.4
2005-03-14 10:28:54 51°28.07 3°9.057 33.8 7.1 28 12.7
2005-03-14 10:29:54 51°28.139 3°9.076 16.9 2.6 7 12.8
2005-03-14 10:30:53 51°28.142 3°9.076 44.2 0.4 153 12.8
2005-03-14 10:31:54 51°28.135 3°9.08 54.6 0.6 156 12.8
2005-03-14 10:32:54 51°28.126 3°9.084 64 0.6 165 12.9
2005-03-14 10:33:53 51°28.114 3°9.089 72.5 0.8 170 12.9
2005-03-14 10:34:53 51°28.101 3°9.092 80.6 0.8 176 13
2005-03-14 10:35:53 51°28.085 3°9.093 86.7 0.8 186 12.9
2005-03-14 10:36:54 51°28.069 3°9.091 91.2 1 186 12.8
2005-03-14 10:37:53 51°28.053 3°9.089 95.9 0.9 187 12.8
2005-03-14 10:38:53 51°28.036 3°9.085 101.3 1.2 189 12.8
2005-03-14 10:39:54 51°28.019 3°9.081 106 0.9 190 12.8
2005-03-14 10:40:54 51°28.001 3°9.075 110.9 0.8 192 12.8
2005-03-14 10:41:53 51°27.983 3°9.069 116.7 1.2 194 12.7
2005-03-14 10:42:53 51°27.965 3°9.062 122.8 1 188 12.7
2005-03-14 10:43:54 51°27.944 3°9.06 125.4 1.6 169 12.6
2005-03-14 10:44:53 51°27.877 3°9.166 137.6 9.1 146 12.3
2005-03-14 10:45:54 51°27.703 3°9.119 216.2 11.9 213 11.8
2005-03-14 10:46:54 51°27.629 3°8.837 270.7 11.8 263 12
2005-03-14 10:47:53 51°27.691 3°8.561 314.4 11.1 302 12.5
2005-03-14 10:48:54 51°27.816 3°8.352 325.1 10.8 314 12.3
2005-03-14 10:49:53 51°27.915 3°8.292 16.8 4.4 1 12.5
2005-03-14 10:50:53 51°27.962 3°8.338 41.3 3.3 39 12.7
2005-03-14 10:51:54 51°28.001 3°8.394 42 3.1 44 12.7
2005-03-14 10:52:53 51°28.038 3°8.448 43.9 3.1 44 12.8
2005-03-14 10:53:53 51°28.071 3°8.516 52.8 3.2 57 13
2005-03-14 10:54:54 51°28.099 3°8.587 52.1 3 57 13.1
2005-03-14 10:55:53 51°28.126 3°8.651 51.8 2.8 50 13.1
2005-03-14 10:56:53 51°28.151 3°8.711 50.5 2.6 56 13.3
2005-03-14 10:57:53 51°28.177 3°8.768 49 2.6 50 13.6
2005-03-14 10:58:53 51°28.203 3°8.825 49.3 2.6 52 13.5
2005-03-14 10:59:53 51°28.23 3°8.882 49 2.6 50 13.5
2005-03-14 11:00:54 51°28.257 3°8.938 49.5 2.7 57 13.5
2005-03-14 11:01:53 51°28.282 3°8.993 49 2.7 58 13.5
2005-03-14 11:02:53 51°28.309 3°9.049 48.8 2.6 56 13.6
2005-03-14 11:03:53 51°28.336 3°9.105 49.2 2.7 55 13.7
2005-03-14 11:04:53 51°28.362 3°9.163 49.8 2.6 52 13.7
2005-03-14 11:05:54 51°28.389 3°9.22 49 2.7 53 13.7
2005-03-14 11:06:54 51°28.416 3°9.277 49.5 2.7 55 13.7
2005-03-14 11:07:53 51°28.442 3°9.334 49.3 2.7 54 13.8
2005-03-14 11:08:53 51°28.467 3°9.391 49.3 2.6 50 13.8
2005-03-14 11:09:53 51°28.493 3°9.45 49 2.7 53 13.6
2005-03-14 11:10:53 51°28.519 3°9.508 49.2 2.7 55 13.6
2005-03-14 11:11:54 51°28.545 3°9.569 49.3 2.7 58 13.6
2005-03-14 11:12:54 51°28.571 3°9.629 49.4 2.7 57 13.6
2005-03-14 11:13:53 51°28.596 3°9.688 48.8 2.7 56 13.6
2005-03-14 11:14:53 51°28.62 3°9.747 46.9 2.6 54 13.5
2005-03-14 11:15:53 51°28.647 3°9.804 46.6 2.6 50 13.5
2005-03-14 11:16:54 51°28.673 3°9.864 47.1 2.7 56 13.6
2005-03-14 11:17:54 51°28.699 3°9.922 46.8 2.7 51 13.5
2005-03-14 11:18:54 51°28.724 3°9.981 47.3 2.6 53 13.5
2005-03-14 11:19:53 51°28.749 3°10.039 47.2 2.7 53 13.5
2005-03-14 11:20:53 51°28.774 3°10.1 47.7 2.7 53 13.4
2005-03-14 11:21:53 51°28.792 3°10.169 64.1 2.9 79 13.4
2005-03-14 11:22:53 51°28.788 3°10.252 82.4 3.4 105 13.1
2005-03-14 11:23:54 51°28.766 3°10.338 97.9 3.6 116 12.8
2005-03-14 11:24:53 51°28.729 3°10.419 111.7 3.7 131 12.6
2005-03-14 11:25:53 51°28.688 3°10.473 127 3.1 149 12.3
2005-03-14 11:26:54 51°28.644 3°10.506 135 2.8 155 12.2
2005-03-14 11:27:53 51°28.581 3°10.521 183.7 4.5 183 12
2005-03-14 11:28:54 51°28.516 3°10.443 250.7 5 235 12
2005-03-14 11:29:53 51°28.489 3°10.327 273.7 4.5 257 12.2
2005-03-14 11:30:53 51°28.474 3°10.212 278 4.3 260 12.5
2005-03-14 11:31:53 51°28.461 3°10.099 278.1 4.3 261 12.7
2005-03-14 11:32:53 51°28.444 3°9.988 272.1 4.4 252 12.9
2005-03-14 11:33:53 51°28.423 3°9.878 271.3 4.3 251 12.8
2005-03-14 11:34:54 51°28.406 3°9.768 279.6 4.1 260 13
2005-03-14 11:35:53 51°28.396 3°9.665 284.1 3.8 260 13.1
2005-03-14 11:36:54 51°28.384 3°9.574 283.9 3.3 260 13.2
2005-03-14 11:37:53 51°28.372 3°9.494 283.7 3.1 256 13.4
2005-03-14 11:38:53 51°28.36 3°9.418 284.1 2.8 255 13.5
2005-03-14 11:39:53 51°28.348 3°9.348 286.6 2.6 253 13.6
2005-03-14 11:40:53 51°28.337 3°9.282 291 2.4 255 13.6
2005-03-14 11:41:54 51°28.33 3°9.219 295.7 2.3 262 13.8
2005-03-14 11:42:54 51°28.324 3°9.154 294.7 2.5 263 13.8
2005-03-14 11:43:53 51°28.318 3°9.088 296.1 2.6 263 13.9
2005-03-14 11:44:53 51°28.314 3°9.019 296.6 2.6 261 13.9
2005-03-14 11:45:53 51°28.308 3°8.948 291.6 2.7 259 13.9
2005-03-14 11:46:54 51°28.3 3°8.876 291.6 2.8 259 13.9
2005-03-14 11:47:53 51°28.293 3°8.806 295.8 2.7 259 14.1
2005-03-14 11:48:53 51°28.291 3°8.739 304.9 2.4 273 14.3
2005-03-14 11:49:54 51°28.295 3°8.673 310.7 2.4 278 14.3
2005-03-14 11:50:54 51°28.301 3°8.609 311.7 2.4 278 14
2005-03-14 11:51:53 51°28.308 3°8.545 312.3 2.5 277 13.6
2005-03-14 11:52:53 51°28.316 3°8.482 312.3 2.4 281 13.6
2005-03-14 11:53:54 51°28.323 3°8.419 311 2.5 278 13.6
2005-03-14 11:54:53 51°28.328 3°8.354 308.4 2.5 279 13.3
2005-03-14 11:55:54 51°28.334 3°8.286 306.9 2.7 274 12.9
2005-03-14 11:56:54 51°28.337 3°8.217 307.1 2.6 274 12.6
2005-03-14 11:57:54 51°28.341 3°8.149 306.2 2.6 275 12.9
2005-03-14 11:58:54 51°28.346 3°8.079 306.2 2.6 275 13.5
2005-03-14 11:59:54 51°28.351 3°8.011 304.8 2.7 273 13.9
2005-03-14 12:00:54 51°28.353 3°7.939 299.6 2.8 267 14
2005-03-14 12:01:53 51°28.352 3°7.868 298.7 2.7 269 14.2
2005-03-14 12:02:54 51°28.351 3°7.794 297.1 2.7 269 14.4
2005-03-14 12:03:53 51°28.349 3°7.721 296.6 2.8 266 14.5
2005-03-14 12:04:54 51°28.347 3°7.645 296 2.9 267 14.6
2005-03-14 12:05:54 51°28.346 3°7.57 298 2.8 268 14.8
2005-03-14 12:06:54 51°28.347 3°7.496 301.1 2.7 272 14.8
2005-03-14 12:07:54 51°28.352 3°7.412 297.2 3.3 276 15.1
2005-03-14 12:08:53 51°28.353 3°7.316 287.9 3.8 268 15.1
2005-03-14 12:09:54 51°28.347 3°7.209 285.1 4 264 15.1
2005-03-14 12:10:53 51°28.346 3°7.107 294.1 3.5 269 15.3
2005-03-14 12:11:54 51°28.342 3°7.026 291.9 2.8 262 15.4
2005-03-14 12:12:54 51°28.335 3°6.963 291.2 2.2 258 15.4
2005-03-14 12:13:53 51°28.325 3°6.912 291.9 1.8 254 15.5
2005-03-14 12:14:54 51°28.315 3°6.865 289.1 2.3 255 15.4
2005-03-14 12:15:54 51°28.318 3°6.747 293.7 5.6 274 15.4
2005-03-14 12:16:53 51°28.263 3°6.531 245 10.7 238 15.3
2005-03-14 12:17:54 51°28.119 3°6.309 223.1 12.3 220 15.2
2005-03-14 12:18:53 51°27.94 3°6.079 223.2 14.8 219 14.9
2005-03-14 12:19:53 51°27.748 3°5.826 224.5 15 219 14.6
2005-03-14 12:20:53 51°27.554 3°5.572 221.5 15.2 216 14.4
2005-03-14 12:21:54 51°27.361 3°5.31 224.8 15.3 223 14.2
2005-03-14 12:22:54 51°27.174 3°5.048 226 14.6 223 13.7
2005-03-14 12:23:54 51°26.989 3°4.79 225.5 14.7 220 13.6
2005-03-14 12:24:54 51°26.801 3°4.533 226.2 14.8 222 12.7
2005-03-14 12:25:54 51°26.616 3°4.276 226.2 14.8 221 11.8
2005-03-14 12:26:53 51°26.431 3°4.024 225.7 14.6 220 10.6
2005-03-14 12:27:53 51°26.246 3°3.771 227.6 14.4 222 10
2005-03-14 12:28:53 51°26.063 3°3.517 225.3 14.4 221 10.7
2005-03-14 12:29:54 51°25.878 3°3.264 225.7 14.5 219 10.9
2005-03-14 12:30:54 51°25.695 3°3.009 227.8 15 220 11.5
2005-03-14 12:31:53 51°25.512 3°2.758 226.3 14.4 220 12.5
2005-03-14 12:32:53 51°25.329 3°2.507 226.5 14.7 220 13.5
2005-03-14 12:33:53 51°25.149 3°2.257 225.8 14.4 219 14.3
2005-03-14 12:34:55 51°24.965 3°2.003 226.4 14.3 219 15.6
2005-03-14 12:35:54 51°24.791 3°1.762 226 14 222 18.3
2005-03-14 12:36:54 51°24.616 3°1.518 226.8 13.8 222 19
2005-03-14 12:37:53 51°24.443 3°1.277 225.9 14.1 221 16.7
2005-03-14 12:38:54 51°24.266 3°1.034 226.2 14 221 17.4
2005-03-14 12:39:54 51°24.088 3°0.792 226.5 13.9 220 18
2005-03-14 12:40:53 51°23.918 3°0.554 226.8 13.8 222 18.5
2005-03-14 12:41:53 51°23.743 3°0.309 226.4 13.8 222 18.7
2005-03-14 12:42:53 51°23.569 3°0.066 226.1 14 220 18.5
2005-03-14 12:43:54 51°23.394 2°59.82 226.2 13.9 223 18.4
2005-03-14 12:44:53 51°23.222 2°59.582 226.5 13.9 221 18.2
2005-03-14 12:45:53 51°23.049 2°59.342 225.6 13.7 221 17.8
2005-03-14 12:46:54 51°22.875 2°59.095 224.9 13.6 218 17.4
2005-03-14 12:47:53 51°22.704 2°58.857 227.1 13.9 222 17.2
2005-03-14 12:48:54 51°22.529 2°58.608 225.7 13.9 219 16.8
2005-03-14 12:49:54 51°22.354 2°58.362 225.6 13.9 222 16.5
2005-03-14 12:50:55 51°22.176 2°58.11 226.1 14.2 221 16.3
2005-03-14 12:51:53 51°22.002 2°57.868 226 13.9 222 15.7
2005-03-14 12:52:54 51°21.824 2°57.611 226.6 14.2 222 15.5
2005-03-14 12:53:54 51°21.649 2°57.36 226.4 14.2 223 15.4
2005-03-14 12:54:55 51°21.468 2°57.104 225.7 14.2 222 15
2005-03-14 12:55:55 51°21.292 2°56.852 226.1 14.2 222 14.9
2005-03-14 12:56:54 51°21.117 2°56.604 225.7 14.1 220 14.7
2005-03-14 12:57:54 51°20.941 2°56.353 226.8 14.3 223 14.5
2005-03-14 12:58:53 51°20.765 2°56.106 226.3 14.3 224 14.4
2005-03-14 12:59:54 51°20.587 2°55.854 225.9 14.2 220 14.3
2005-03-14 13:00:54 51°20.409 2°55.601 226.4 14.2 222 14.1
2005-03-14 13:01:54 51°20.231 2°55.356 224.3 14.1 220 13.9
2005-03-14 13:02:55 51°20.05 2°55.102 225.4 14.1 222 13.9
2005-03-14 13:03:54 51°19.874 2°54.86 225.6 14.1 220 13.8
2005-03-14 13:04:54 51°19.699 2°54.621 225.6 13.9 222 13.6
2005-03-14 13:05:53 51°19.526 2°54.384 224.4 13.8 220 13.4
2005-03-14 13:06:54 51°19.35 2°54.143 224.3 13.8 220 13.3
2005-03-14 13:07:54 51°19.177 2°53.907 225.8 13.6 220 13.3
2005-03-14 13:08:54 51°19.003 2°53.671 224.4 13.5 219 13
2005-03-14 13:09:53 51°18.833 2°53.441 224.2 13.5 221 12.9
2005-03-14 13:10:54 51°18.661 2°53.203 225.2 13.6 220 12.8
2005-03-14 13:11:53 51°18.491 2°52.972 225.9 13.5 218 12.6
2005-03-14 13:12:54 51°18.321 2°52.735 225.8 13.5 222 12.5
2005-03-14 13:13:54 51°18.144 2°52.531 212 13.3 203 12.2
2005-03-14 13:14:54 51°17.924 2°52.468 191.3 13 187 12.1
2005-03-14 13:15:54 51°17.7 2°52.462 181.3 13.6 177 11.8
2005-03-14 13:16:54 51°17.475 2°52.466 184.6 13.6 179 11.9
2005-03-14 13:17:54 51°17.247 2°52.469 184.9 13.7 180 11.6
2005-03-14 13:18:54 51°17.024 2°52.471 183.9 13.7 179 11.2
2005-03-14 13:19:53 51°16.802 2°52.477 185.7 13 179 11.9
2005-03-14 13:20:54 51°16.575 2°52.53 174.5 14.2 168 13.1
2005-03-14 13:21:53 51°16.36 2°52.63 169.5 13.7 163 14.1
2005-03-14 13:22:55 51°16.138 2°52.743 169.1 13.5 162 13.9
2005-03-14 13:23:53 51°15.932 2°52.86 167 13.6 159 13.6
2005-03-14 13:24:54 51°15.714 2°52.982 167.6 13.5 160 13.5
2005-03-14 13:25:54 51°15.506 2°53.109 163.8 13.5 157 13
2005-03-14 13:26:54 51°15.305 2°53.253 160.3 13.1 154 12.4
2005-03-14 13:27:53 51°15.104 2°53.398 161.4 13.6 155 11.9
2005-03-14 13:28:53 51°14.901 2°53.552 160 13.9 154 11.9
2005-03-14 13:29:53 51°14.709 2°53.703 161.2 10.9 151 12.5
2005-03-14 13:30:54 51°14.572 2°53.832 157 8.6 145 12.2
2005-03-14 13:31:54 51°14.505 2°53.959 139.5 4.9 114 12.3
2005-03-14 13:32:53 51°14.495 2°54.045 139.9 3.2 97 12.3
2005-03-14 13:33:54 51°14.476 2°54.123 166.7 3.1 127 12.3
2005-03-14 13:34:54 51°14.447 2°54.145 221.4 1.3 190 12.3
2005-03-14 13:35:54 51°14.446 2°54.123 267.8 1.5 307 12.2
2005-03-14 13:36:55 51°14.504 2°54.108 348.4 4.9 4 12.6
2005-03-14 13:37:53 51°14.571 2°54.216 67.7 5.3 61 13
2005-03-14 13:38:54 51°14.591 2°54.287 112.2 2.4 70 12.9
2005-03-14 13:39:53 51°14.606 2°54.346 131.4 2.4 69 12.8
2005-03-14 13:40:53 51°14.619 2°54.406 139.6 2.3 75 12.9
2005-03-14 13:41:54 51°14.631 2°54.467 147.2 2.4 71 12.8
2005-03-14 13:42:53 51°14.643 2°54.526 153.6 2.4 73 12.8
2005-03-14 13:43:54 51°14.648 2°54.591 160.4 3.1 108 12.5
2005-03-14 13:44:53 51°14.552 2°54.728 153.9 9.5 141 12.7
2005-03-14 13:45:55 51°14.412 2°54.939 146.4 11.3 137 13.1
2005-03-14 13:46:53 51°14.292 2°55.167 132.8 10.5 129 11.6
2005-03-14 13:47:54 51°14.186 2°55.349 140.5 9.1 140 13
2005-03-14 13:48:53 51°14.065 2°55.457 157 8.1 154 12.1
2005-03-14 13:49:53 51°13.951 2°55.546 156.3 7.3 152 13
2005-03-14 13:50:53 51°13.847 2°55.631 156.5 6.9 153 12.9
2005-03-14 13:51:54 51°13.764 2°55.717 141.1 5.4 137 12.7
2005-03-14 13:52:55 51°13.703 2°55.822 132.6 5.2 130 -999
2005-03-14 13:53:54 51°13.654 2°55.932 126.3 5.2 123 -999
2005-03-14 13:54:54 51°13.615 2°56.034 118.6 4 116 11.9
2005-03-14 13:55:54 51°13.598 2°56.091 126.2 1.3 119 10.1